Baxterville, Colorado
Current Conditions -  °F | °C
As of 6:10 AM on Thursday 27 Nov 2014 (Local Time) from KRCV Reporting Station
Clear Clear  
Wind Chill: 16°   Ceiling: Unl
Heat Index: 23°   Visibility: 10mi
Dew Point: 11°   Wind: 6mph
Humidity: 60%   Direction: 270°W
Pressure: 30.51"   Gusts: NA
Location:  37.6359°N, 106.449°W
Report Text: KRCV 271310Z AUTO 27005KT 10SM CLR M05/M12 A3051 RMK AO2 T10481116
Loading
Personal Weather Stations






























Interactive Weather Map New forecast layout! Learn more

10-Day Weather Forecast

Advertisements
Track Severe Weather on mobile